createdAt,value
2018-08-25T00:02:59.326Z,63.35
2018-08-25T00:05:59.294Z,63.29
2018-08-25T00:08:59.262Z,63.66
2018-08-25T00:11:59.250Z,63.86
2018-08-25T00:14:59.195Z,63.76
2018-08-25T00:17:59.185Z,63.89
2018-08-25T00:20:59.136Z,63.86
2018-08-25T00:23:59.119Z,64.70
2018-08-25T00:26:59.055Z,64.84
2018-08-25T00:29:59.035Z,65.55
2018-08-25T00:32:59.001Z,65.75
2018-08-25T00:35:58.990Z,65.55
2018-08-25T00:38:58.924Z,65.75
2018-08-25T00:41:58.885Z,65.34
2018-08-25T00:44:58.878Z,65.65
2018-08-25T00:47:58.862Z,65.45
2018-08-25T00:50:58.791Z,65.65
2018-08-25T00:53:58.757Z,65.55
2018-08-25T00:56:58.736Z,65.55
2018-08-25T00:59:58.686Z,65.62
2018-08-25T01:02:58.650Z,65.52
2018-08-25T01:05:58.623Z,65.62
2018-08-25T01:08:58.582Z,65.08
2018-08-25T01:11:58.572Z,64.88
2018-08-25T01:14:58.508Z,65.01
2018-08-25T01:17:58.489Z,65.48
2018-08-25T01:20:58.451Z,65.42
2018-08-25T01:23:58.409Z,65.48
2018-08-25T01:26:58.387Z,65.89
2018-08-25T01:29:58.337Z,66.02
2018-08-25T01:32:58.293Z,65.92
2018-08-25T01:35:58.309Z,66.19
2018-08-25T01:38:58.246Z,67.11
2018-08-25T01:41:58.224Z,68.96
2018-08-25T01:44:58.172Z,69.27
2018-08-25T01:47:58.151Z,70.72
2018-08-25T01:50:58.142Z,71.33
2018-08-25T01:53:58.106Z,71.44
2018-08-25T01:56:58.068Z,72.45
2018-08-25T01:59:58.018Z,73.70
2018-08-25T02:02:57.975Z,73.60
2018-08-25T02:05:57.946Z,73.46
2018-08-25T02:08:57.880Z,77.15
2018-08-25T02:11:57.873Z,78.51
2018-08-25T02:14:57.845Z,79.72
2018-08-25T02:17:57.810Z,80.37
2018-08-25T02:20:57.776Z,82.00
2018-08-25T02:23:57.728Z,81.59
2018-08-25T02:26:57.687Z,80.98
2018-08-25T02:29:57.744Z,82.04
2018-08-25T02:32:57.617Z,81.02
2018-08-25T02:35:57.598Z,81.59
2018-08-25T02:38:57.562Z,81.33
2018-08-25T02:41:57.531Z,82.34
2018-08-25T02:44:57.494Z,82.24
2018-08-25T02:47:57.448Z,82.04
2018-08-25T02:50:57.400Z,82.45
2018-08-25T02:53:57.396Z,82.95
2018-08-25T02:56:57.343Z,86.45
2018-08-25T02:59:57.309Z,89.03
2018-08-25T03:02:57.260Z,92.38
2018-08-25T03:05:57.240Z,97.40
2018-08-25T03:08:57.209Z,99.99
2018-08-25T03:11:57.169Z,99.99
2018-08-25T03:14:57.147Z,99.99
2018-08-25T03:17:57.119Z,99.99
2018-08-25T03:20:57.064Z,99.99
2018-08-25T03:23:57.037Z,99.99
2018-08-25T03:26:57.007Z,99.99
2018-08-25T03:29:56.983Z,99.99
2018-08-25T03:32:56.932Z,99.99
2018-08-25T03:35:56.918Z,99.99
2018-08-25T03:38:56.867Z,99.99
2018-08-25T03:41:56.840Z,99.99
2018-08-25T03:44:56.785Z,99.99
2018-08-25T03:47:56.768Z,99.99
2018-08-25T03:50:56.722Z,99.99
2018-08-25T03:53:56.709Z,99.99
2018-08-25T03:56:56.777Z,99.13
2018-08-25T03:59:56.624Z,99.99
2018-08-25T04:02:56.584Z,99.02
2018-08-25T04:05:56.580Z,98.86
2018-08-25T04:08:56.514Z,99.79
2018-08-25T04:11:56.492Z,99.99
2018-08-25T04:14:56.499Z,99.07
2018-08-25T04:17:56.430Z,99.07
2018-08-25T04:20:56.384Z,98.86
2018-08-25T04:23:56.376Z,98.86
2018-08-25T04:26:56.496Z,98.66
2018-08-25T04:29:56.316Z,98.61
2018-08-25T04:32:56.240Z,98.56
2018-08-25T04:35:56.235Z,98.05
2018-08-25T04:38:56.183Z,98.15
2018-08-25T04:41:56.179Z,99.48
2018-08-25T04:44:56.107Z,99.32
2018-08-25T04:47:56.137Z,98.86
2018-08-25T04:50:56.041Z,98.36
2018-08-25T04:53:56.008Z,98.05
2018-08-25T04:56:56.116Z,99.18
2018-08-25T04:59:55.950Z,98.15
2018-08-25T05:02:55.927Z,98.21
2018-08-25T05:05:55.878Z,98.86
2018-08-25T05:08:55.839Z,98.36
2018-08-25T05:11:55.825Z,97.95
2018-08-25T05:14:55.804Z,97.74
2018-08-25T05:17:55.739Z,96.37
2018-08-25T05:20:55.713Z,93.12
2018-08-25T05:23:56.727Z,90.81
2018-08-25T05:26:55.628Z,89.48
2018-08-25T05:29:55.652Z,92.91
2018-08-25T05:32:55.578Z,89.59
2018-08-25T05:35:55.725Z,90.44
2018-08-25T05:38:56.175Z,86.25
2018-08-25T05:41:55.504Z,86.69
2018-08-25T05:44:55.421Z,86.53
2018-08-25T05:47:55.443Z,84.74
2018-08-25T05:50:55.405Z,86.19
2018-08-25T05:53:55.386Z,89.16
2018-08-25T05:56:55.330Z,91.03
2018-08-25T05:59:55.292Z,90.79
2018-08-25T06:02:55.233Z,91.71
2018-08-25T06:05:55.217Z,92.00
2018-08-25T06:08:55.184Z,91.39
2018-08-25T06:11:55.147Z,91.61
2018-08-25T06:14:55.095Z,91.44
2018-08-25T06:17:55.060Z,91.96
2018-08-25T06:20:55.037Z,92.46
2018-08-25T06:23:54.986Z,90.63
2018-08-25T06:26:54.945Z,85.55
2018-08-25T06:29:54.984Z,79.98
2018-08-25T06:32:54.885Z,78.15
2018-08-25T06:35:54.957Z,73.59
2018-08-25T06:38:54.830Z,74.74
2018-08-25T06:41:54.799Z,73.49
2018-08-25T06:44:54.732Z,73.79
2018-08-25T06:47:54.721Z,76.56
2018-08-25T06:50:54.686Z,76.97
2018-08-25T06:53:54.648Z,77.59
2018-08-25T06:56:54.596Z,83.76
2018-08-25T06:59:54.598Z,82.31
2018-08-25T07:02:54.582Z,83.60
2018-08-25T07:05:56.661Z,83.87
2018-08-25T07:08:54.467Z,79.65
2018-08-25T07:11:54.445Z,76.03
2018-08-25T07:14:54.394Z,72.17
2018-08-25T07:17:54.434Z,69.38
2018-08-25T07:20:54.350Z,74.95
2018-08-25T07:23:54.346Z,80.30
2018-08-25T07:26:54.268Z,80.17
2018-08-25T07:29:54.313Z,77.93
2018-08-25T07:32:54.197Z,76.40
2018-08-25T07:35:54.224Z,76.51
2018-08-25T07:38:54.143Z,77.90
2018-08-25T07:41:54.130Z,78.30
2018-08-25T07:44:54.097Z,79.59
2018-08-25T07:47:54.035Z,78.27
2018-08-25T07:50:54.012Z,72.92
2018-08-25T07:53:54.008Z,71.06
2018-08-25T07:56:54.250Z,69.08
2018-08-25T07:59:53.958Z,61.61
2018-08-25T08:02:53.880Z,69.08
2018-08-25T08:05:54.728Z,71.30
2018-08-25T08:08:53.810Z,63.93
2018-08-25T08:11:53.881Z,66.18
2018-08-25T08:14:53.718Z,65.52
2018-08-25T08:17:53.722Z,67.16
2018-08-25T08:20:53.663Z,61.98
2018-08-25T08:23:53.636Z,60.51
2018-08-25T08:26:53.606Z,60.89
2018-08-25T08:29:53.599Z,53.92
2018-08-25T08:33:02.679Z,59.19
2018-08-25T08:35:54.509Z,65.98
2018-08-25T08:38:53.542Z,69.04
2018-08-25T08:41:53.552Z,70.96
2018-08-25T08:44:53.476Z,71.64
2018-08-25T08:47:53.422Z,72.24
2018-08-25T08:50:53.317Z,70.49
2018-08-25T08:53:53.326Z,69.58
2018-08-25T08:56:53.243Z,61.47
2018-08-25T08:59:53.246Z,63.70
2018-08-25T09:02:53.228Z,63.17
2018-08-25T09:05:53.197Z,60.67
2018-08-25T09:08:53.137Z,63.30
2018-08-25T09:11:53.144Z,63.40
2018-08-25T09:14:53.085Z,64.17
2018-08-25T09:17:53.024Z,58.02
2018-08-25T09:20:52.980Z,61.46
2018-08-25T09:23:52.969Z,63.42
2018-08-25T09:26:52.933Z,63.06
2018-08-25T09:29:52.897Z,62.83
2018-08-25T09:32:52.854Z,63.67
2018-08-25T09:35:52.942Z,65.14
2018-08-25T09:38:52.778Z,64.64
2018-08-25T09:41:52.852Z,64.23
2018-08-25T09:44:52.714Z,62.96
2018-08-25T09:47:52.702Z,61.53
2018-08-25T09:50:52.649Z,56.74
2018-08-25T09:53:52.627Z,57.35
2018-08-25T09:56:53.271Z,59.14
2018-08-25T09:59:52.719Z,61.95
2018-08-25T10:02:52.603Z,64.97
2018-08-25T10:05:52.544Z,65.81
2018-08-25T10:08:52.467Z,66.10
2018-08-25T10:11:52.489Z,68.36
2018-08-25T10:14:52.492Z,68.73
2018-08-25T10:17:52.370Z,66.85
2018-08-25T10:20:52.335Z,66.14
2018-08-25T10:23:52.362Z,65.61
2018-08-25T10:26:52.331Z,65.84
2018-08-25T10:29:54.228Z,66.81
2018-08-25T10:32:52.245Z,67.22
2018-08-25T10:35:52.285Z,67.11
2018-08-25T10:38:52.135Z,65.94
2018-08-25T10:41:52.239Z,63.96
2018-08-25T10:44:52.090Z,62.59
2018-08-25T10:47:52.094Z,61.61
2018-08-25T10:50:51.999Z,59.07
2018-08-25T10:53:52.063Z,61.95
2018-08-25T10:56:52.001Z,62.74
2018-08-25T10:59:51.906Z,57.50
2018-08-25T11:02:51.840Z,53.97
2018-08-25T11:05:51.850Z,53.17
2018-08-25T11:08:51.822Z,51.37
2018-08-25T11:11:51.775Z,51.17
2018-08-25T11:14:51.719Z,47.47
2018-08-25T11:17:51.697Z,50.57
2018-08-25T11:20:51.749Z,48.14
2018-08-25T11:23:51.777Z,49.39
2018-08-25T11:26:51.723Z,49.76
2018-08-25T11:29:51.567Z,52.67
2018-08-25T11:32:51.503Z,51.51
2018-08-25T11:35:51.488Z,50.79
2018-08-25T11:38:51.458Z,50.63
2018-08-25T11:41:52.428Z,56.80
2018-08-25T11:44:52.367Z,78.03
2018-08-25T11:47:51.348Z,92.07
2018-08-25T11:50:51.295Z,93.64
2018-08-25T11:53:51.275Z,93.76
2018-08-25T11:56:51.229Z,92.49
2018-08-25T11:59:51.211Z,89.81
2018-08-25T12:02:51.165Z,89.62
2018-08-25T12:05:51.145Z,89.39
2018-08-25T12:08:51.103Z,88.20
2018-08-25T12:11:51.065Z,83.76
2018-08-25T12:14:51.048Z,81.52
2018-08-25T12:17:51.032Z,69.96
2018-08-25T12:20:50.969Z,69.29
2018-08-25T12:23:50.970Z,64.78
2018-08-25T12:26:50.920Z,69.46
2018-08-25T12:29:50.868Z,65.21
2018-08-25T12:32:50.822Z,64.93
2018-08-25T12:35:50.804Z,66.50
2018-08-25T12:38:50.781Z,66.94
2018-08-25T12:41:50.744Z,69.48
2018-08-25T12:44:50.706Z,67.90
2018-08-25T12:47:50.682Z,68.27
2018-08-25T12:50:50.626Z,75.85
2018-08-25T12:53:50.599Z,79.53
2018-08-25T12:56:50.545Z,78.00
2018-08-25T12:59:50.544Z,76.58
2018-08-25T13:02:50.478Z,74.19
2018-08-25T13:05:50.459Z,72.54
2018-08-25T13:08:50.411Z,73.65
2018-08-25T13:11:50.400Z,73.72
2018-08-25T13:14:50.433Z,72.95
2018-08-25T13:17:50.327Z,71.73
2018-08-25T13:20:50.272Z,72.44
2018-08-25T13:23:50.292Z,72.61
2018-08-25T13:26:50.210Z,71.17
2018-08-25T13:29:50.199Z,74.80
2018-08-25T13:32:50.130Z,72.51
2018-08-25T13:35:50.113Z,72.72
2018-08-25T13:38:50.077Z,76.15
2018-08-25T13:41:50.051Z,75.62
2018-08-25T13:44:50.013Z,77.75
2018-08-25T13:47:49.978Z,77.68
2018-08-25T13:50:49.979Z,76.56
2018-08-25T13:53:50.932Z,77.07
2018-08-25T13:56:50.200Z,75.85
2018-08-25T13:59:50.422Z,74.77
2018-08-25T14:02:50.027Z,75.01
2018-08-25T14:05:49.778Z,75.62
2018-08-25T14:08:49.729Z,74.57
2018-08-25T14:11:49.696Z,73.83
2018-08-25T14:14:49.658Z,71.64
2018-08-25T14:17:49.630Z,62.68
2018-08-25T14:20:49.661Z,60.97
2018-08-25T14:23:49.611Z,56.21
2018-08-25T14:26:50.199Z,58.06
2018-08-25T14:29:49.501Z,54.93
2018-08-25T14:32:49.459Z,61.47
2018-08-25T14:35:49.439Z,64.67
2018-08-25T14:38:49.387Z,84.20
2018-08-25T14:41:49.436Z,91.39
2018-08-25T14:44:49.328Z,95.60
2018-08-25T14:47:49.298Z,97.86
2018-08-25T14:50:49.251Z,95.16
2018-08-25T14:53:49.239Z,95.07
2018-08-25T14:56:49.185Z,93.57
2018-08-25T14:59:49.158Z,91.36
2018-08-25T15:02:49.112Z,92.96
2018-08-25T15:05:49.094Z,89.76
2018-08-25T15:08:49.050Z,85.14
2018-08-25T15:11:49.036Z,85.31
2018-08-25T15:14:48.981Z,81.79
2018-08-25T15:17:48.970Z,85.66
2018-08-25T15:20:48.915Z,85.38
2018-08-25T15:23:48.901Z,77.04
2018-08-25T15:26:48.844Z,71.60
2018-08-25T15:29:48.836Z,75.86
2018-08-25T15:32:49.661Z,72.20
2018-08-25T15:35:49.155Z,76.55
2018-08-25T15:38:48.724Z,75.57
2018-08-25T15:41:48.694Z,70.06
2018-08-25T15:44:48.645Z,65.87
2018-08-25T15:47:48.633Z,67.27
2018-08-25T15:50:48.576Z,72.14
2018-08-25T15:53:48.572Z,72.99
2018-08-25T15:56:48.530Z,71.09
2018-08-25T15:59:48.519Z,69.58
2018-08-25T16:02:48.443Z,68.27
2018-08-25T16:05:48.451Z,61.70
2018-08-25T16:08:48.389Z,57.65
2018-08-25T16:11:48.421Z,60.77
2018-08-25T16:14:48.330Z,61.35
2018-08-25T16:17:48.317Z,58.01
2018-08-25T16:20:48.257Z,58.85
2018-08-25T16:23:48.231Z,61.60
2018-08-25T16:26:48.171Z,58.98
2018-08-25T16:29:48.260Z,58.83
2018-08-25T16:32:48.115Z,60.48
2018-08-25T16:35:48.092Z,59.66
2018-08-25T16:38:48.050Z,57.32
2018-08-25T16:41:48.039Z,52.89
2018-08-25T16:44:47.990Z,53.60
2018-08-25T16:47:47.944Z,53.07
2018-08-25T16:50:47.931Z,53.00
2018-08-25T16:53:47.901Z,52.04
2018-08-25T16:56:48.222Z,53.70
2018-08-25T16:59:47.834Z,55.19
2018-08-25T17:02:47.777Z,58.09
2018-08-25T17:05:47.746Z,57.21
2018-08-25T17:08:47.738Z,58.60
2018-08-25T17:11:47.701Z,58.86
2018-08-25T17:14:47.637Z,58.51
2018-08-25T17:17:47.657Z,59.59
2018-08-25T17:20:47.581Z,56.07
2018-08-25T17:23:47.552Z,58.07
2018-08-25T17:26:47.548Z,59.03
2018-08-25T17:29:47.531Z,57.52
2018-08-25T17:32:47.437Z,54.86
2018-08-25T17:35:47.413Z,58.07
2018-08-25T17:38:47.457Z,55.46
2018-08-25T17:41:49.235Z,55.49
2018-08-25T17:44:47.305Z,54.53
2018-08-25T17:47:47.294Z,54.61
2018-08-25T17:50:47.262Z,56.37
2018-08-25T17:53:47.246Z,56.07
2018-08-25T17:56:47.192Z,56.63
2018-08-25T17:59:47.159Z,59.70
2018-08-25T18:02:47.117Z,62.62
2018-08-25T18:05:47.210Z,63.46
2018-08-25T18:08:47.045Z,64.23
2018-08-25T18:11:46.999Z,65.24
2018-08-25T18:14:46.982Z,65.88
2018-08-25T18:17:46.956Z,67.24
2018-08-25T18:20:46.939Z,68.66
2018-08-25T18:23:46.905Z,67.47
2018-08-25T18:26:46.825Z,68.69
2018-08-25T18:29:48.667Z,69.43
2018-08-25T18:32:46.780Z,69.97
2018-08-25T18:35:46.731Z,70.18
2018-08-25T18:38:46.691Z,70.31
2018-08-25T18:41:46.681Z,71.94
2018-08-25T18:44:46.647Z,73.10
2018-08-25T18:47:48.167Z,72.99
2018-08-25T18:50:46.553Z,72.58
2018-08-25T18:53:46.530Z,73.74
2018-08-25T18:56:46.495Z,74.04
2018-08-25T18:59:46.462Z,74.45
2018-08-25T19:02:46.412Z,74.45
2018-08-25T19:05:48.167Z,74.45
2018-08-25T19:08:46.476Z,76.53
2018-08-25T19:11:46.366Z,77.07
2018-08-25T19:14:46.291Z,76.76
2018-08-25T19:17:46.305Z,77.21
2018-08-25T19:20:46.214Z,78.12
2018-08-25T19:23:46.258Z,80.00
2018-08-25T19:26:46.232Z,80.30
2018-08-25T19:29:46.208Z,80.96
2018-08-25T19:32:46.085Z,80.75
2018-08-25T19:35:46.082Z,82.53
2018-08-25T19:38:46.012Z,79.93
2018-08-25T19:41:45.983Z,79.08
2018-08-25T19:44:45.934Z,78.23
2018-08-25T19:47:45.924Z,76.90
2018-08-25T19:50:45.919Z,77.48
2018-08-25T19:53:45.876Z,78.09
2018-08-25T19:56:45.857Z,78.19
2018-08-25T19:59:47.689Z,77.78
2018-08-25T20:02:45.728Z,78.91
2018-08-25T20:05:45.813Z,78.80
2018-08-25T20:08:45.673Z,78.80
2018-08-25T20:11:45.663Z,79.82
2018-08-25T20:14:45.609Z,79.32
2018-08-25T20:17:45.584Z,79.21
2018-08-25T20:20:45.693Z,78.80
2018-08-25T20:23:45.506Z,78.50
2018-08-25T20:26:45.451Z,79.75
2018-08-25T20:29:45.487Z,80.27
2018-08-25T20:32:45.416Z,81.32
2018-08-25T20:35:45.415Z,83.92
2018-08-25T20:38:45.324Z,84.12
2018-08-25T20:41:45.336Z,84.22
2018-08-25T20:44:45.259Z,84.01
2018-08-25T20:47:45.671Z,83.71
2018-08-25T20:50:45.193Z,83.78
2018-08-25T20:53:45.166Z,83.06
2018-08-25T20:56:45.136Z,83.67
2018-08-25T20:59:45.090Z,82.96
2018-08-25T21:02:45.039Z,83.57
2018-08-25T21:05:45.024Z,83.37
2018-08-25T21:08:44.973Z,83.10
2018-08-25T21:11:44.954Z,84.63
2018-08-25T21:14:44.911Z,84.67
2018-08-25T21:17:44.883Z,84.77
2018-08-25T21:20:44.879Z,85.42
2018-08-25T21:23:44.814Z,86.85
2018-08-25T21:26:44.787Z,87.61
2018-08-25T21:29:44.766Z,88.23
2018-08-25T21:32:44.702Z,89.59
2018-08-25T21:35:44.684Z,89.80
2018-08-25T21:38:44.653Z,90.45
2018-08-25T21:41:44.637Z,90.15
2018-08-25T21:44:44.583Z,90.11
2018-08-25T21:47:44.599Z,90.45
2018-08-25T21:50:44.488Z,89.18
2018-08-25T21:53:44.480Z,88.88
2018-08-25T21:56:44.426Z,89.80
2018-08-25T21:59:44.407Z,89.70
2018-08-25T22:02:44.350Z,89.09
2018-08-25T22:05:44.337Z,88.88
2018-08-25T22:08:44.298Z,89.29
2018-08-25T22:11:44.269Z,88.98
2018-08-25T22:14:44.216Z,88.33
2018-08-25T22:17:46.138Z,88.53
2018-08-25T22:20:44.162Z,88.47
2018-08-25T22:23:44.131Z,88.43
2018-08-25T22:26:44.189Z,88.74
2018-08-25T22:29:44.116Z,89.09
2018-08-25T22:32:45.722Z,88.88
2018-08-25T22:36:01.337Z,88.84
2018-08-25T22:38:44.778Z,88.47
2018-08-25T22:41:44.016Z,88.64
2018-08-25T22:44:43.912Z,88.02
2018-08-25T22:47:47.644Z,88.84
2018-08-25T22:50:46.477Z,87.16
2018-08-25T22:53:43.813Z,86.96
2018-08-25T22:56:43.758Z,87.71
2018-08-25T22:59:44.727Z,88.53
2018-08-25T23:02:44.649Z,88.12
2018-08-25T23:05:48.147Z,88.02
2018-08-25T23:08:43.628Z,88.43
2018-08-25T23:11:43.588Z,88.74
2018-08-25T23:14:43.551Z,88.64
2018-08-25T23:17:43.534Z,88.64
2018-08-25T23:20:46.123Z,88.88
2018-08-25T23:23:43.443Z,90.41
2018-08-25T23:26:43.404Z,90.86
2018-08-25T23:29:43.379Z,91.07
2018-08-25T23:32:43.336Z,92.10
2018-08-25T23:35:43.309Z,91.07
2018-08-25T23:38:43.274Z,90.86
2018-08-25T23:41:43.236Z,90.77
2018-08-25T23:44:44.123Z,91.07
2018-08-25T23:47:43.214Z,91.83
2018-08-25T23:50:43.145Z,92.03
2018-08-25T23:53:43.106Z,93.30
2018-08-25T23:56:43.056Z,94.12
2018-08-25T23:59:43.030Z,93.62
